メインページ
METAR-TAF:

METAR-TAF

空港 :

Ha'il, サウジアラビア

緯度: 27-26N, 経度: 041-41E, 海抜: 1015m

現時点の気象観測

当レポートは52分前の22:00(UTC)に作成
無風
気温 10°C
湿度 93%
気圧 1025 hPa
視程: 6000m

METAR: OEHL 152200Z 00000KT 6000 NSC 10/09 Q1025

時間: 01:52 (22:52 UTC)

予報

当レポートは11時間52分前の11:00(UTC)に作成
予報は15日の 12時(UTC)から 16日の 18時(UTC)まで有効
の風 8kt、最大18ktの突風を伴う
視程: 7000m
高度4000ftの雲はほとんどない
高度10000ftの雲は散在している
15日の 12時(UTC)から 15日の 18時(UTC)まで一時的に
高度3500ftの雲はほとんどない, 積乱雲.
高度4000ftの雲は散在している
15日の 20時(UTC)から 15日の 22時(UTC)まで徐々に
変向風 3kt
15日の 20時(UTC)から 16日の 06時(UTC)まで一時的に
視程: 4000m

TAF: OEHL 151100Z 1512/1618 10008G18KT 7000 FEW040 SCT100 TEMPO 1512/1518 FEW035CB SCT040 BECMG 1520/1522 VRB03KT TEMPO 1520/1606 4000 BR

4,000以上の空港の気象観測と天気予報(METAR報とTAF報)

利用可能な観測所は地図上に黄色い丸と赤い丸で示す。

丸の上にカーソルを重ねると観測所名を参照できる。

次にクリックすると気象観測と天気予報を参照できる。

マップの切り替え:黒色「×」印の緑ボタンをクリックして拡大、「-」印の緑ボタンをクリックして縮小、緑色の三角印をクリックして隣りの地図に切り替え


METAR-TAF: